sensor_id;sensor_type;location;lat;lon;timestamp;temperature;humidity
2651;DHT22;1335;48.180;16.342;2022-07-24T00:01:21;25.40;99.90
2651;DHT22;1335;48.180;16.342;2022-07-24T00:03:49;24.70;99.90
2651;DHT22;1335;48.180;16.342;2022-07-24T00:06:16;25.00;99.90
2651;DHT22;1335;48.180;16.342;2022-07-24T00:08:44;25.00;99.90
2651;DHT22;1335;48.180;16.342;2022-07-24T00:11:11;25.00;99.90
2651;DHT22;1335;48.180;16.342;2022-07-24T00:13:41;25.20;99.90
2651;DHT22;1335;48.180;16.342;2022-07-24T00:16:08;24.90;99.90
2651;DHT22;1335;48.180;16.342;2022-07-24T00:18:35;25.00;99.90
2651;DHT22;1335;48.180;16.342;2022-07-24T00:21:03;24.80;99.90
2651;DHT22;1335;48.180;16.342;2022-07-24T00:23:30;24.90;99.90
2651;DHT22;1335;48.180;16.342;2022-07-24T00:25:58;25.00;99.90
2651;DHT22;1335;48.180;16.342;2022-07-24T00:28:25;25.30;99.90
2651;DHT22;1335;48.180;16.342;2022-07-24T00:30:54;24.90;99.90
2651;DHT22;1335;48.180;16.342;2022-07-24T00:33:21;24.90;99.90
2651;DHT22;1335;48.180;16.342;2022-07-24T00:35:48;24.70;99.90
2651;DHT22;1335;48.180;16.342;2022-07-24T00:38:16;25.00;99.90
2651;DHT22;1335;48.180;16.342;2022-07-24T00:40:43;25.10;99.90
2651;DHT22;1335;48.180;16.342;2022-07-24T00:43:10;24.40;99.90
2651;DHT22;1335;48.180;16.342;2022-07-24T00:45:38;24.40;99.90
2651;DHT22;1335;48.180;16.342;2022-07-24T00:48:07;24.70;99.90
2651;DHT22;1335;48.180;16.342;2022-07-24T00:50:35;24.20;99.90
2651;DHT22;1335;48.180;16.342;2022-07-24T00:53:03;24.30;99.90
2651;DHT22;1335;48.180;16.342;2022-07-24T00:55:30;24.40;99.90
2651;DHT22;1335;48.180;16.342;2022-07-24T00:57:59;24.10;99.90
2651;DHT22;1335;48.180;16.342;2022-07-24T01:00:26;23.70;99.90
2651;DHT22;1335;48.180;16.342;2022-07-24T01:02:54;24.10;99.90
2651;DHT22;1335;48.180;16.342;2022-07-24T01:05:22;24.00;99.90
2651;DHT22;1335;48.180;16.342;2022-07-24T01:07:50;24.10;99.90
2651;DHT22;1335;48.180;16.342;2022-07-24T01:10:18;24.10;99.90
2651;DHT22;1335;48.180;16.342;2022-07-24T01:12:45;24.20;99.90
2651;DHT22;1335;48.180;16.342;2022-07-24T01:15:13;23.90;99.90
2651;DHT22;1335;48.180;16.342;2022-07-24T01:17:41;24.30;99.90
2651;DHT22;1335;48.180;16.342;2022-07-24T01:20:10;24.00;99.90
2651;DHT22;1335;48.180;16.342;2022-07-24T01:22:39;23.50;99.90
2651;DHT22;1335;48.180;16.342;2022-07-24T01:25:07;23.90;99.90
2651;DHT22;1335;48.180;16.342;2022-07-24T01:27:35;23.80;99.90
2651;DHT22;1335;48.180;16.342;2022-07-24T01:30:02;24.00;99.90
2651;DHT22;1335;48.180;16.342;2022-07-24T01:32:29;23.90;99.90
2651;DHT22;1335;48.180;16.342;2022-07-24T01:34:57;23.70;99.90
2651;DHT22;1335;48.180;16.342;2022-07-24T01:37:24;23.80;99.90
2651;DHT22;1335;48.180;16.342;2022-07-24T01:39:53;24.00;99.90
2651;DHT22;1335;48.180;16.342;2022-07-24T01:42:20;23.90;99.90
2651;DHT22;1335;48.180;16.342;2022-07-24T01:44:49;23.90;99.90
2651;DHT22;1335;48.180;16.342;2022-07-24T01:47:16;23.80;99.90
2651;DHT22;1335;48.180;16.342;2022-07-24T01:49:43;23.60;99.90
2651;DHT22;1335;48.180;16.342;2022-07-24T01:52:11;23.90;99.90
2651;DHT22;1335;48.180;16.342;2022-07-24T01:54:38;23.90;99.90
2651;DHT22;1335;48.180;16.342;2022-07-24T01:57:06;23.40;99.90
2651;DHT22;1335;48.180;16.342;2022-07-24T01:59:33;23.60;99.90
2651;DHT22;1335;48.180;16.342;2022-07-24T02:02:01;23.40;99.90
2651;DHT22;1335;48.180;16.342;2022-07-24T02:04:28;23.40;99.90
2651;DHT22;1335;48.180;16.342;2022-07-24T02:06:55;23.50;99.90
2651;DHT22;1335;48.180;16.342;2022-07-24T02:09:22;23.40;99.90
2651;DHT22;1335;48.180;16.342;2022-07-24T02:11:49;23.10;99.90
2651;DHT22;1335;48.180;16.342;2022-07-24T02:14:18;23.80;99.90
2651;DHT22;1335;48.180;16.342;2022-07-24T02:16:45;23.20;99.90
2651;DHT22;1335;48.180;16.342;2022-07-24T02:19:13;22.90;99.90
2651;DHT22;1335;48.180;16.342;2022-07-24T02:21:40;22.70;99.90
2651;DHT22;1335;48.180;16.342;2022-07-24T02:24:07;23.00;99.90
2651;DHT22;1335;48.180;16.342;2022-07-24T02:26:34;22.50;99.90
2651;DHT22;1335;48.180;16.342;2022-07-24T02:29:02;22.70;99.90
2651;DHT22;1335;48.180;16.342;2022-07-24T02:31:30;22.80;99.90
2651;DHT22;1335;48.180;16.342;2022-07-24T02:33:58;23.00;99.90
2651;DHT22;1335;48.180;16.342;2022-07-24T02:36:25;22.70;99.90
2651;DHT22;1335;48.180;16.342;2022-07-24T02:38:52;23.20;99.90
2651;DHT22;1335;48.180;16.342;2022-07-24T02:41:19;23.00;99.90
2651;DHT22;1335;48.180;16.342;2022-07-24T02:43:47;22.70;99.90
2651;DHT22;1335;48.180;16.342;2022-07-24T02:46:14;22.80;99.90
2651;DHT22;1335;48.180;16.342;2022-07-24T02:48:42;23.30;99.90
2651;DHT22;1335;48.180;16.342;2022-07-24T02:51:10;22.50;99.90
2651;DHT22;1335;48.180;16.342;2022-07-24T02:53:37;22.80;99.90
2651;DHT22;1335;48.180;16.342;2022-07-24T02:56:05;22.60;99.90
2651;DHT22;1335;48.180;16.342;2022-07-24T02:58:32;22.30;99.90
2651;DHT22;1335;48.180;16.342;2022-07-24T03:00:59;22.50;99.90
2651;DHT22;1335;48.180;16.342;2022-07-24T03:03:26;22.80;99.90
2651;DHT22;1335;48.180;16.342;2022-07-24T03:05:55;22.60;99.90
2651;DHT22;1335;48.180;16.342;2022-07-24T03:08:22;22.60;99.90
2651;DHT22;1335;48.180;16.342;2022-07-24T03:10:50;22.90;99.90
2651;DHT22;1335;48.180;16.342;2022-07-24T03:13:17;22.30;99.90
2651;DHT22;1335;48.180;16.342;2022-07-24T03:15:44;22.80;99.90
2651;DHT22;1335;48.180;16.342;2022-07-24T03:18:11;21.80;99.90
2651;DHT22;1335;48.180;16.342;2022-07-24T03:20:38;22.30;99.90
2651;DHT22;1335;48.180;16.342;2022-07-24T03:23:07;22.80;99.90
2651;DHT22;1335;48.180;16.342;2022-07-24T03:25:34;22.20;99.90
2651;DHT22;1335;48.180;16.342;2022-07-24T03:28:01;22.20;99.90
2651;DHT22;1335;48.180;16.342;2022-07-24T03:30:28;22.70;99.90
2651;DHT22;1335;48.180;16.342;2022-07-24T03:32:55;22.30;99.90
2651;DHT22;1335;48.180;16.342;2022-07-24T03:35:22;22.50;99.90
2651;DHT22;1335;48.180;16.342;2022-07-24T03:37:49;22.10;99.90
2651;DHT22;1335;48.180;16.342;2022-07-24T03:40:18;22.30;99.90
2651;DHT22;1335;48.180;16.342;2022-07-24T03:42:46;22.10;99.90
2651;DHT22;1335;48.180;16.342;2022-07-24T03:45:13;22.20;99.90
2651;DHT22;1335;48.180;16.342;2022-07-24T03:47:40;22.30;99.90
2651;DHT22;1335;48.180;16.342;2022-07-24T03:50:07;22.20;99.90
2651;DHT22;1335;48.180;16.342;2022-07-24T03:52:35;22.20;99.90
2651;DHT22;1335;48.180;16.342;2022-07-24T03:55:02;21.80;99.90
2651;DHT22;1335;48.180;16.342;2022-07-24T03:57:31;22.10;99.90
2651;DHT22;1335;48.180;16.342;2022-07-24T03:59:58;21.90;99.90
2651;DHT22;1335;48.180;16.342;2022-07-24T04:02:25;22.30;99.90
2651;DHT22;1335;48.180;16.342;2022-07-24T04:04:52;22.00;99.90
2651;DHT22;1335;48.180;16.342;2022-07-24T04:07:19;22.10;99.90
2651;DHT22;1335;48.180;16.342;2022-07-24T04:09:47;22.40;99.90
2651;DHT22;1335;48.180;16.342;2022-07-24T04:12:14;22.20;99.90
2651;DHT22;1335;48.180;16.342;2022-07-24T04:14:42;22.30;99.90
2651;DHT22;1335;48.180;16.342;2022-07-24T04:17:10;22.40;99.90
2651;DHT22;1335;48.180;16.342;2022-07-24T04:19:37;22.70;99.90
2651;DHT22;1335;48.180;16.342;2022-07-24T04:22:04;23.00;99.90
2651;DHT22;1335;48.180;16.342;2022-07-24T04:24:32;22.70;99.90
2651;DHT22;1335;48.180;16.342;2022-07-24T04:26:59;22.70;99.90
2651;DHT22;1335;48.180;16.342;2022-07-24T04:29:26;23.10;99.90
2651;DHT22;1335;48.180;16.342;2022-07-24T04:31:55;22.70;99.90
2651;DHT22;1335;48.180;16.342;2022-07-24T04:34:22;23.10;99.90
2651;DHT22;1335;48.180;16.342;2022-07-24T04:36:50;23.10;99.90
2651;DHT22;1335;48.180;16.342;2022-07-24T04:39:19;23.20;99.90
2651;DHT22;1335;48.180;16.342;2022-07-24T04:41:46;23.60;99.90
2651;DHT22;1335;48.180;16.342;2022-07-24T04:44:13;23.50;99.90
2651;DHT22;1335;48.180;16.342;2022-07-24T04:46:41;23.80;99.90
2651;DHT22;1335;48.180;16.342;2022-07-24T04:49:10;24.10;99.90
2651;DHT22;1335;48.180;16.342;2022-07-24T04:51:37;23.80;99.90
2651;DHT22;1335;48.180;16.342;2022-07-24T04:54:04;25.00;99.90
2651;DHT22;1335;48.180;16.342;2022-07-24T04:56:32;26.40;99.90
2651;DHT22;1335;48.180;16.342;2022-07-24T04:58:59;26.20;99.90
2651;DHT22;1335;48.180;16.342;2022-07-24T05:01:28;26.20;99.90
2651;DHT22;1335;48.180;16.342;2022-07-24T05:03:56;26.80;99.90
2651;DHT22;1335;48.180;16.342;2022-07-24T05:06:26;26.20;99.90
2651;DHT22;1335;48.180;16.342;2022-07-24T05:08:53;26.30;99.90
2651;DHT22;1335;48.180;16.342;2022-07-24T05:11:21;25.60;99.90
2651;DHT22;1335;48.180;16.342;2022-07-24T05:13:48;26.30;99.90
2651;DHT22;1335;48.180;16.342;2022-07-24T05:16:16;26.10;99.90
2651;DHT22;1335;48.180;16.342;2022-07-24T05:18:44;26.10;99.90
2651;DHT22;1335;48.180;16.342;2022-07-24T05:21:11;26.70;99.90
2651;DHT22;1335;48.180;16.342;2022-07-24T05:23:41;27.50;99.90
2651;DHT22;1335;48.180;16.342;2022-07-24T05:26:09;27.10;99.90
2651;DHT22;1335;48.180;16.342;2022-07-24T05:28:37;27.90;99.90
2651;DHT22;1335;48.180;16.342;2022-07-24T05:31:04;27.90;99.90
2651;DHT22;1335;48.180;16.342;2022-07-24T05:33:34;29.50;99.90
2651;DHT22;1335;48.180;16.342;2022-07-24T05:36:01;29.40;99.90
2651;DHT22;1335;48.180;16.342;2022-07-24T05:38:28;29.10;99.90
2651;DHT22;1335;48.180;16.342;2022-07-24T05:40:57;30.00;99.90
2651;DHT22;1335;48.180;16.342;2022-07-24T05:43:24;31.00;99.90
2651;DHT22;1335;48.180;16.342;2022-07-24T05:45:51;31.80;99.90
2651;DHT22;1335;48.180;16.342;2022-07-24T05:48:19;32.20;99.90
2651;DHT22;1335;48.180;16.342;2022-07-24T05:50:47;32.70;99.90
2651;DHT22;1335;48.180;16.342;2022-07-24T05:53:14;33.00;99.90
2651;DHT22;1335;48.180;16.342;2022-07-24T05:55:41;34.40;99.90
2651;DHT22;1335;48.180;16.342;2022-07-24T05:58:14;34.90;99.90
2651;DHT22;1335;48.180;16.342;2022-07-24T06:00:43;35.90;99.90
2651;DHT22;1335;48.180;16.342;2022-07-24T06:03:11;38.20;99.90
2651;DHT22;1335;48.180;16.342;2022-07-24T06:05:40;38.60;99.90
2651;DHT22;1335;48.180;16.342;2022-07-24T06:08:09;39.70;99.90
2651;DHT22;1335;48.180;16.342;2022-07-24T06:10:51;40.00;99.90
2651;DHT22;1335;48.180;16.342;2022-07-24T06:13:20;40.40;99.90
2651;DHT22;1335;48.180;16.342;2022-07-24T06:15:48;40.20;99.90
2651;DHT22;1335;48.180;16.342;2022-07-24T06:18:16;39.80;99.90
2651;DHT22;1335;48.180;16.342;2022-07-24T06:20:43;41.30;99.90
2651;DHT22;1335;48.180;16.342;2022-07-24T06:23:13;41.00;99.90
2651;DHT22;1335;48.180;16.342;2022-07-24T06:25:41;42.60;99.90
2651;DHT22;1335;48.180;16.342;2022-07-24T06:28:11;42.40;99.90
2651;DHT22;1335;48.180;16.342;2022-07-24T06:30:40;42.80;99.90
2651;DHT22;1335;48.180;16.342;2022-07-24T06:33:07;43.70;99.90
2651;DHT22;1335;48.180;16.342;2022-07-24T06:35:34;44.20;99.90
2651;DHT22;1335;48.180;16.342;2022-07-24T06:38:03;45.20;99.90
2651;DHT22;1335;48.180;16.342;2022-07-24T06:40:30;45.10;99.90
2651;DHT22;1335;48.180;16.342;2022-07-24T06:42:59;45.50;99.90
2651;DHT22;1335;48.180;16.342;2022-07-24T06:45:28;45.30;99.90
2651;DHT22;1335;48.180;16.342;2022-07-24T06:48:01;44.80;99.90
2651;DHT22;1335;48.180;16.342;2022-07-24T06:50:30;45.50;99.90
2651;DHT22;1335;48.180;16.342;2022-07-24T06:52:58;45.50;99.90
2651;DHT22;1335;48.180;16.342;2022-07-24T06:55:25;45.00;99.90
2651;DHT22;1335;48.180;16.342;2022-07-24T06:57:54;45.20;99.90
2651;DHT22;1335;48.180;16.342;2022-07-24T07:00:21;45.80;99.90
2651;DHT22;1335;48.180;16.342;2022-07-24T07:02:48;45.30;99.90
2651;DHT22;1335;48.180;16.342;2022-07-24T07:05:18;43.00;99.90
2651;DHT22;1335;48.180;16.342;2022-07-24T07:07:46;42.20;99.90
2651;DHT22;1335;48.180;16.342;2022-07-24T07:10:13;42.60;99.90
2651;DHT22;1335;48.180;16.342;2022-07-24T07:12:40;40.70;99.90
2651;DHT22;1335;48.180;16.342;2022-07-24T07:15:10;38.20;99.90
2651;DHT22;1335;48.180;16.342;2022-07-24T07:17:41;38.50;99.90
2651;DHT22;1335;48.180;16.342;2022-07-24T07:20:12;38.10;99.90
2651;DHT22;1335;48.180;16.342;2022-07-24T07:22:49;36.50;99.90
2651;DHT22;1335;48.180;16.342;2022-07-24T07:25:17;39.00;99.90
2651;DHT22;1335;48.180;16.342;2022-07-24T07:27:47;41.00;99.90
2651;DHT22;1335;48.180;16.342;2022-07-24T07:30:14;42.00;99.90
2651;DHT22;1335;48.180;16.342;2022-07-24T07:32:41;43.50;99.90
2651;DHT22;1335;48.180;16.342;2022-07-24T07:35:08;43.70;99.90
2651;DHT22;1335;48.180;16.342;2022-07-24T07:37:37;44.80;99.90
2651;DHT22;1335;48.180;16.342;2022-07-24T07:40:08;44.30;99.90
2651;DHT22;1335;48.180;16.342;2022-07-24T07:42:40;45.30;99.90
2651;DHT22;1335;48.180;16.342;2022-07-24T07:45:08;43.30;99.90
2651;DHT22;1335;48.180;16.342;2022-07-24T07:47:50;46.40;99.90
2651;DHT22;1335;48.180;16.342;2022-07-24T07:50:20;47.70;99.90
2651;DHT22;1335;48.180;16.342;2022-07-24T07:52:47;48.10;99.90
2651;DHT22;1335;48.180;16.342;2022-07-24T07:55:16;48.40;99.90
2651;DHT22;1335;48.180;16.342;2022-07-24T07:57:45;48.80;99.90
2651;DHT22;1335;48.180;16.342;2022-07-24T08:00:15;49.30;99.90
2651;DHT22;1335;48.180;16.342;2022-07-24T08:02:44;49.70;99.90
2651;DHT22;1335;48.180;16.342;2022-07-24T08:05:14;50.10;99.90
2651;DHT22;1335;48.180;16.342;2022-07-24T08:07:55;50.00;99.90
2651;DHT22;1335;48.180;16.342;2022-07-24T08:10:29;49.50;99.90
2651;DHT22;1335;48.180;16.342;2022-07-24T08:12:58;49.60;99.90
2651;DHT22;1335;48.180;16.342;2022-07-24T08:15:28;50.20;99.90
2651;DHT22;1335;48.180;16.342;2022-07-24T08:18:03;50.60;99.90
2651;DHT22;1335;48.180;16.342;2022-07-24T08:20:36;50.70;99.90
2651;DHT22;1335;48.180;16.342;2022-07-24T08:23:05;49.70;99.90
2651;DHT22;1335;48.180;16.342;2022-07-24T08:25:59;49.80;99.90
2651;DHT22;1335;48.180;16.342;2022-07-24T08:28:27;49.80;99.90
2651;DHT22;1335;48.180;16.342;2022-07-24T08:30:54;50.90;99.90
2651;DHT22;1335;48.180;16.342;2022-07-24T08:33:24;50.90;99.90
2651;DHT22;1335;48.180;16.342;2022-07-24T08:35:53;50.80;99.90
2651;DHT22;1335;48.180;16.342;2022-07-24T08:38:23;49.80;99.90
2651;DHT22;1335;48.180;16.342;2022-07-24T08:41:07;50.80;99.90
2651;DHT22;1335;48.180;16.342;2022-07-24T08:43:37;47.90;99.90
2651;DHT22;1335;48.180;16.342;2022-07-24T08:46:10;49.20;99.90
2651;DHT22;1335;48.180;16.342;2022-07-24T08:48:43;49.70;99.90
2651;DHT22;1335;48.180;16.342;2022-07-24T08:51:21;50.40;99.90
2651;DHT22;1335;48.180;16.342;2022-07-24T08:53:49;51.50;99.90
2651;DHT22;1335;48.180;16.342;2022-07-24T08:56:19;48.40;99.90
2651;DHT22;1335;48.180;16.342;2022-07-24T08:58:47;49.60;99.90
2651;DHT22;1335;48.180;16.342;2022-07-24T09:01:15;49.90;99.90
2651;DHT22;1335;48.180;16.342;2022-07-24T09:03:46;51.00;99.90
2651;DHT22;1335;48.180;16.342;2022-07-24T09:06:15;51.10;99.90
2651;DHT22;1335;48.180;16.342;2022-07-24T09:08:58;50.70;99.90
2651;DHT22;1335;48.180;16.342;2022-07-24T09:11:43;50.90;99.90
2651;DHT22;1335;48.180;16.342;2022-07-24T09:14:11;51.40;99.90
2651;DHT22;1335;48.180;16.342;2022-07-24T09:17:02;52.30;99.90
2651;DHT22;1335;48.180;16.342;2022-07-24T09:19:47;52.20;99.90
2651;DHT22;1335;48.180;16.342;2022-07-24T09:22:36;51.50;99.90
2651;DHT22;1335;48.180;16.342;2022-07-24T09:25:13;50.90;99.90
2651;DHT22;1335;48.180;16.342;2022-07-24T09:27:54;51.10;99.90
2651;DHT22;1335;48.180;16.342;2022-07-24T09:30:28;51.10;99.90
2651;DHT22;1335;48.180;16.342;2022-07-24T09:33:00;51.20;99.90
2651;DHT22;1335;48.180;16.342;2022-07-24T09:35:33;51.70;99.90
2651;DHT22;1335;48.180;16.342;2022-07-24T09:38:04;51.90;99.90
2651;DHT22;1335;48.180;16.342;2022-07-24T09:40:35;51.40;99.90
2651;DHT22;1335;48.180;16.342;2022-07-24T09:43:14;51.10;99.90
2651;DHT22;1335;48.180;16.342;2022-07-24T09:45:57;49.20;99.90
2651;DHT22;1335;48.180;16.342;2022-07-24T09:48:28;48.00;99.90
2651;DHT22;1335;48.180;16.342;2022-07-24T09:51:03;48.70;99.90
2651;DHT22;1335;48.180;16.342;2022-07-24T09:53:33;50.00;99.90
2651;DHT22;1335;48.180;16.342;2022-07-24T09:56:05;49.10;99.90
2651;DHT22;1335;48.180;16.342;2022-07-24T09:58:36;49.00;99.90
2651;DHT22;1335;48.180;16.342;2022-07-24T10:01:06;47.90;99.90
2651;DHT22;1335;48.180;16.342;2022-07-24T10:03:41;49.40;99.90
2651;DHT22;1335;48.180;16.342;2022-07-24T10:06:11;48.20;99.90
2651;DHT22;1335;48.180;16.342;2022-07-24T10:08:43;48.50;99.90
2651;DHT22;1335;48.180;16.342;2022-07-24T10:11:12;48.10;99.90
2651;DHT22;1335;48.180;16.342;2022-07-24T10:13:49;48.80;99.90
2651;DHT22;1335;48.180;16.342;2022-07-24T10:16:27;49.70;99.90
2651;DHT22;1335;48.180;16.342;2022-07-24T10:18:55;49.00;99.90
2651;DHT22;1335;48.180;16.342;2022-07-24T10:21:24;47.40;99.90
2651;DHT22;1335;48.180;16.342;2022-07-24T10:24:11;45.40;99.90
2651;DHT22;1335;48.180;16.342;2022-07-24T10:26:40;41.70;99.90
2651;DHT22;1335;48.180;16.342;2022-07-24T10:29:10;43.60;99.90
2651;DHT22;1335;48.180;16.342;2022-07-24T10:31:39;42.50;99.90
2651;DHT22;1335;48.180;16.342;2022-07-24T10:34:13;44.50;99.90
2651;DHT22;1335;48.180;16.342;2022-07-24T10:36:50;44.40;99.90
2651;DHT22;1335;48.180;16.342;2022-07-24T10:39:25;45.30;99.90
2651;DHT22;1335;48.180;16.342;2022-07-24T10:42:01;44.60;99.90
2651;DHT22;1335;48.180;16.342;2022-07-24T10:44:32;42.10;99.90
2651;DHT22;1335;48.180;16.342;2022-07-24T10:47:07;44.70;99.90
2651;DHT22;1335;48.180;16.342;2022-07-24T10:49:46;45.30;99.90
2651;DHT22;1335;48.180;16.342;2022-07-24T10:52:25;45.70;99.90
2651;DHT22;1335;48.180;16.342;2022-07-24T10:55:29;46.50;99.90
2651;DHT22;1335;48.180;16.342;2022-07-24T10:58:00;46.10;99.90
2651;DHT22;1335;48.180;16.342;2022-07-24T11:00:36;45.80;99.90
2651;DHT22;1335;48.180;16.342;2022-07-24T11:03:06;45.00;99.90
2651;DHT22;1335;48.180;16.342;2022-07-24T11:06:06;45.20;99.90
2651;DHT22;1335;48.180;16.342;2022-07-24T11:08:42;44.90;99.90
2651;DHT22;1335;48.180;16.342;2022-07-24T11:11:24;45.00;99.90
2651;DHT22;1335;48.180;16.342;2022-07-24T11:13:55;45.00;99.90
2651;DHT22;1335;48.180;16.342;2022-07-24T11:16:41;44.70;99.90
2651;DHT22;1335;48.180;16.342;2022-07-24T11:19:27;44.70;99.90
2651;DHT22;1335;48.180;16.342;2022-07-24T11:22:08;45.10;99.90
2651;DHT22;1335;48.180;16.342;2022-07-24T11:25:06;45.10;99.90
2651;DHT22;1335;48.180;16.342;2022-07-24T11:27:56;45.00;99.90
2651;DHT22;1335;48.180;16.342;2022-07-24T11:30:26;44.30;99.90
2651;DHT22;1335;48.180;16.342;2022-07-24T11:33:00;43.40;99.90
2651;DHT22;1335;48.180;16.342;2022-07-24T11:35:32;43.60;99.90
2651;DHT22;1335;48.180;16.342;2022-07-24T11:38:01;42.90;99.90
2651;DHT22;1335;48.180;16.342;2022-07-24T11:40:30;41.50;99.90
2651;DHT22;1335;48.180;16.342;2022-07-24T11:43:00;42.10;99.90
2651;DHT22;1335;48.180;16.342;2022-07-24T11:45:28;41.90;99.90
2651;DHT22;1335;48.180;16.342;2022-07-24T11:47:56;42.10;99.90
2651;DHT22;1335;48.180;16.342;2022-07-24T11:50:25;38.20;99.90
2651;DHT22;1335;48.180;16.342;2022-07-24T11:52:52;37.30;99.90
2651;DHT22;1335;48.180;16.342;2022-07-24T11:55:22;38.10;99.90
2651;DHT22;1335;48.180;16.342;2022-07-24T11:57:53;38.70;99.90
2651;DHT22;1335;48.180;16.342;2022-07-24T12:00:23;39.00;99.90
2651;DHT22;1335;48.180;16.342;2022-07-24T12:02:53;39.80;99.90
2651;DHT22;1335;48.180;16.342;2022-07-24T12:05:28;39.70;99.90
2651;DHT22;1335;48.180;16.342;2022-07-24T12:07:56;40.40;99.90
2651;DHT22;1335;48.180;16.342;2022-07-24T12:10:25;39.10;99.90
2651;DHT22;1335;48.180;16.342;2022-07-24T12:12:53;39.10;99.90
2651;DHT22;1335;48.180;16.342;2022-07-24T12:15:21;39.40;99.90
2651;DHT22;1335;48.180;16.342;2022-07-24T12:18:04;38.70;99.90
2651;DHT22;1335;48.180;16.342;2022-07-24T12:20:35;39.30;99.90
2651;DHT22;1335;48.180;16.342;2022-07-24T12:23:04;38.10;99.90
2651;DHT22;1335;48.180;16.342;2022-07-24T12:25:32;39.10;99.90
2651;DHT22;1335;48.180;16.342;2022-07-24T12:28:05;38.40;99.90
2651;DHT22;1335;48.180;16.342;2022-07-24T12:30:34;38.50;99.90
2651;DHT22;1335;48.180;16.342;2022-07-24T12:33:03;38.70;99.90
2651;DHT22;1335;48.180;16.342;2022-07-24T12:35:51;37.70;99.90
2651;DHT22;1335;48.180;16.342;2022-07-24T12:38:24;38.00;99.90
2651;DHT22;1335;48.180;16.342;2022-07-24T12:41:01;38.10;99.90
2651;DHT22;1335;48.180;16.342;2022-07-24T12:43:29;37.80;99.90
2651;DHT22;1335;48.180;16.342;2022-07-24T12:46:08;37.20;99.90
2651;DHT22;1335;48.180;16.342;2022-07-24T12:48:39;37.50;99.90
2651;DHT22;1335;48.180;16.342;2022-07-24T12:51:09;36.90;99.90
2651;DHT22;1335;48.180;16.342;2022-07-24T12:53:39;37.20;99.90
2651;DHT22;1335;48.180;16.342;2022-07-24T12:56:09;37.00;99.90
2651;DHT22;1335;48.180;16.342;2022-07-24T12:58:58;36.80;99.90
2651;DHT22;1335;48.180;16.342;2022-07-24T13:01:28;36.60;99.90
2651;DHT22;1335;48.180;16.342;2022-07-24T13:04:00;36.00;99.90
2651;DHT22;1335;48.180;16.342;2022-07-24T13:06:39;35.70;99.90
2651;DHT22;1335;48.180;16.342;2022-07-24T13:09:09;34.60;99.90
2651;DHT22;1335;48.180;16.342;2022-07-24T13:11:36;35.00;99.90
2651;DHT22;1335;48.180;16.342;2022-07-24T13:14:05;34.60;99.90
2651;DHT22;1335;48.180;16.342;2022-07-24T13:16:34;34.80;99.90
2651;DHT22;1335;48.180;16.342;2022-07-24T13:19:03;34.40;99.90
2651;DHT22;1335;48.180;16.342;2022-07-24T13:21:30;34.90;99.90
2651;DHT22;1335;48.180;16.342;2022-07-24T13:23:59;33.70;99.90
2651;DHT22;1335;48.180;16.342;2022-07-24T13:26:26;33.70;99.90
2651;DHT22;1335;48.180;16.342;2022-07-24T13:28:54;34.30;99.90
2651;DHT22;1335;48.180;16.342;2022-07-24T13:31:21;32.80;99.90
2651;DHT22;1335;48.180;16.342;2022-07-24T13:33:49;33.80;99.90
2651;DHT22;1335;48.180;16.342;2022-07-24T13:36:17;34.20;99.90
2651;DHT22;1335;48.180;16.342;2022-07-24T13:38:45;33.40;99.90
2651;DHT22;1335;48.180;16.342;2022-07-24T13:41:14;32.60;99.90
2651;DHT22;1335;48.180;16.342;2022-07-24T13:43:46;33.80;99.90
2651;DHT22;1335;48.180;16.342;2022-07-24T13:46:13;33.20;99.90
2651;DHT22;1335;48.180;16.342;2022-07-24T13:48:41;32.40;99.90
2651;DHT22;1335;48.180;16.342;2022-07-24T13:51:09;31.70;99.90
2651;DHT22;1335;48.180;16.342;2022-07-24T13:53:37;32.40;99.90
2651;DHT22;1335;48.180;16.342;2022-07-24T13:56:04;32.30;99.90
2651;DHT22;1335;48.180;16.342;2022-07-24T13:58:34;31.80;99.90
2651;DHT22;1335;48.180;16.342;2022-07-24T14:01:02;32.70;99.90
2651;DHT22;1335;48.180;16.342;2022-07-24T14:03:29;32.30;99.90
2651;DHT22;1335;48.180;16.342;2022-07-24T14:05:56;32.60;99.90
2651;DHT22;1335;48.180;16.342;2022-07-24T14:08:24;33.00;99.90
2651;DHT22;1335;48.180;16.342;2022-07-24T14:10:51;32.10;99.90
2651;DHT22;1335;48.180;16.342;2022-07-24T14:13:20;31.50;99.90
2651;DHT22;1335;48.180;16.342;2022-07-24T14:15:49;31.80;99.90
2651;DHT22;1335;48.180;16.342;2022-07-24T14:18:19;31.50;99.90
2651;DHT22;1335;48.180;16.342;2022-07-24T14:20:50;31.10;99.90
2651;DHT22;1335;48.180;16.342;2022-07-24T14:23:18;31.60;99.90
2651;DHT22;1335;48.180;16.342;2022-07-24T14:25:51;31.60;99.90
2651;DHT22;1335;48.180;16.342;2022-07-24T14:28:20;30.80;99.90
2651;DHT22;1335;48.180;16.342;2022-07-24T14:30:52;31.30;99.90
2651;DHT22;1335;48.180;16.342;2022-07-24T14:33:20;31.20;99.90
2651;DHT22;1335;48.180;16.342;2022-07-24T14:35:51;31.50;99.90
2651;DHT22;1335;48.180;16.342;2022-07-24T14:38:19;31.90;99.90
2651;DHT22;1335;48.180;16.342;2022-07-24T14:40:47;31.90;99.90
2651;DHT22;1335;48.180;16.342;2022-07-24T14:43:15;31.80;99.90
2651;DHT22;1335;48.180;16.342;2022-07-24T14:45:45;31.70;99.90
2651;DHT22;1335;48.180;16.342;2022-07-24T14:48:16;31.30;99.90
2651;DHT22;1335;48.180;16.342;2022-07-24T14:50:53;30.80;99.90
2651;DHT22;1335;48.180;16.342;2022-07-24T14:53:26;31.20;99.90
2651;DHT22;1335;48.180;16.342;2022-07-24T14:55:53;30.60;99.90
2651;DHT22;1335;48.180;16.342;2022-07-24T14:58:22;31.30;99.90
2651;DHT22;1335;48.180;16.342;2022-07-24T15:00:52;31.10;99.90
2651;DHT22;1335;48.180;16.342;2022-07-24T15:03:24;31.30;99.90
2651;DHT22;1335;48.180;16.342;2022-07-24T15:05:52;31.40;99.90
2651;DHT22;1335;48.180;16.342;2022-07-24T15:08:19;30.80;99.90
2651;DHT22;1335;48.180;16.342;2022-07-24T15:10:47;31.50;99.90
2651;DHT22;1335;48.180;16.342;2022-07-24T15:13:17;31.60;99.90
2651;DHT22;1335;48.180;16.342;2022-07-24T15:15:47;31.40;99.90
2651;DHT22;1335;48.180;16.342;2022-07-24T15:18:16;31.60;99.90
2651;DHT22;1335;48.180;16.342;2022-07-24T15:20:46;31.50;99.90
2651;DHT22;1335;48.180;16.342;2022-07-24T15:23:14;31.60;99.90
2651;DHT22;1335;48.180;16.342;2022-07-24T15:25:45;31.50;99.90
2651;DHT22;1335;48.180;16.342;2022-07-24T15:28:21;31.50;99.90
2651;DHT22;1335;48.180;16.342;2022-07-24T15:30:48;30.90;99.90
2651;DHT22;1335;48.180;16.342;2022-07-24T15:33:16;30.90;99.90
2651;DHT22;1335;48.180;16.342;2022-07-24T15:35:50;31.00;99.90
2651;DHT22;1335;48.180;16.342;2022-07-24T15:38:17;31.30;99.90
2651;DHT22;1335;48.180;16.342;2022-07-24T15:40:47;30.80;99.90
2651;DHT22;1335;48.180;16.342;2022-07-24T15:43:15;31.10;99.90
2651;DHT22;1335;48.180;16.342;2022-07-24T15:45:47;31.30;99.90
2651;DHT22;1335;48.180;16.342;2022-07-24T15:48:33;30.90;99.90
2651;DHT22;1335;48.180;16.342;2022-07-24T15:51:16;31.40;99.90
2651;DHT22;1335;48.180;16.342;2022-07-24T15:53:53;30.90;99.90
2651;DHT22;1335;48.180;16.342;2022-07-24T15:56:36;31.20;99.90
2651;DHT22;1335;48.180;16.342;2022-07-24T15:59:13;31.40;99.90
2651;DHT22;1335;48.180;16.342;2022-07-24T16:01:56;31.30;99.90
2651;DHT22;1335;48.180;16.342;2022-07-24T16:04:50;30.80;99.90